Pagrindinis puslapis
METAR-TAF:

METAR-TAF

Oro uostai :

Takna, Peru

platuma: 18-04S, ilguma: 070-18W, Aukštis: 468 m

Dabartinis oras

Ataskaita buvo paskelbta 9 valandos ir 8 minutes, ne 19:00 UTC
Vėjas 11 kt iš Pietvakarių, svyruoja nuo Pietų ir Vakarų
Temperatūra 25°C
Drėgmė 50%
Slėgis 1012 hPa
Matomumas 10 km arba daugiau
nėra debesų žemiau 1500 m ir nėra kamuolinių lietaus debesų

METAR: SPTN 211900Z 22011KT 180V260 CAVOK 25/14 Q1012 RMK PP000

Laikas: 23:08 (04:08 UTC)

Prognozė

Ataskaita buvo paskelbta 10 valandos ir 48 minutes, ne 17:20 UTC
Prognozė galioja nuo 21 metu 18 UTC su 22 metu 18 UTC
Vėjas 10 kt iš Pietvakarių
Matomumas 10 km arba daugiau
nėra debesų žemiau 1500 m ir nėra kamuolinių lietaus debesų
Nuo 21 metu 2230 UTC
Vėjas 3 kt iš Vakarų
Matomumas 10 km arba daugiau
Išsisklaidę debesys ne aukštis 4000 ft
Nuo 22 metu 1430 UTC
Vėjas 8 kt iš Pietvakarių
Matomumas 10 km arba daugiau
Mažai debesys ne aukštis 10000 ft

TAF: SPTN 211720Z 2118/2218 22010KT CAVOK TX27/2119Z TN17/2210Z FM212230 27003KT 9999 SCT040 FM221430 23008KT 9999 FEW100

Orai ataskaitas ir orų prognozės (METAR, TAF).

turimą stotys yra geltonos ir raudonos taškus žemėlapyje.

Perkelti pele per norėdami pamatyti stoties vardą.

Tada spustelėkite, norėdami matyti oro stebėjimo ir prognozės.

Norėdami pakeisti žemėlapį: spustelėkite ant žalios mygtukų su juodo kryžiaus žemyn,; žalią mygtuką su brūkšneliu, jei norite nutolinti; arba žalių rodyklių gretimoms žemėlapius.


METAR-TAF: